createdAt,value
2023-04-29T00:00:16.651Z,11.20
2023-04-29T00:00:48.324Z,10.23
2023-04-29T00:01:20.065Z,12.23
2023-04-29T00:01:51.983Z,8.60
2023-04-29T00:02:23.819Z,12.60
2023-04-29T00:02:55.929Z,12.00
2023-04-29T00:03:29.425Z,10.43
2023-04-29T00:04:01.962Z,11.27
2023-04-29T00:04:35.026Z,11.20
2023-04-29T00:05:07.460Z,12.35
2023-04-29T00:05:39.618Z,9.93
2023-04-29T00:06:14.714Z,12.77
2023-04-29T00:06:47.223Z,10.40
2023-04-29T00:07:19.320Z,9.43
2023-04-29T00:07:50.902Z,9.93
2023-04-29T00:08:22.960Z,10.10
2023-04-29T00:08:54.630Z,10.88
2023-04-29T00:09:26.198Z,9.20
2023-04-29T00:09:58.139Z,10.57
2023-04-29T00:10:29.718Z,9.60
2023-04-29T00:11:01.332Z,9.90
2023-04-29T00:11:33.658Z,11.77
2023-04-29T00:12:05.321Z,9.20
2023-04-29T00:12:37.045Z,12.10
2023-04-29T00:13:08.737Z,8.27
2023-04-29T00:13:41.098Z,10.60
2023-04-29T00:14:12.856Z,11.57
2023-04-29T00:14:44.567Z,11.63
2023-04-29T00:15:16.136Z,13.15
2023-04-29T00:15:48.158Z,11.27
2023-04-29T00:16:19.828Z,11.63
2023-04-29T00:16:51.902Z,12.30
2023-04-29T00:17:23.594Z,9.15
2023-04-29T00:17:55.834Z,12.68
2023-04-29T00:18:27.552Z,12.95
2023-04-29T00:18:59.736Z,10.53
2023-04-29T00:19:31.675Z,11.27
2023-04-29T00:20:04.489Z,11.52
2023-04-29T00:20:38.050Z,11.32
2023-04-29T00:21:09.676Z,12.20
2023-04-29T00:21:41.593Z,12.30
2023-04-29T00:22:13.164Z,11.43
2023-04-29T00:22:45.237Z,14.38
2023-04-29T00:23:16.856Z,12.10
2023-04-29T00:23:48.483Z,12.18
2023-04-29T00:24:20.349Z,11.80
2023-04-29T00:24:53.247Z,12.73
2023-04-29T00:25:25.008Z,13.40
2023-04-29T00:25:57.014Z,11.95
2023-04-29T00:26:28.631Z,12.43
2023-04-29T00:27:01.746Z,13.32
2023-04-29T00:27:33.318Z,12.30
2023-04-29T00:28:08.599Z,14.13
2023-04-29T00:28:40.308Z,14.70
2023-04-29T00:29:11.966Z,14.95
2023-04-29T00:29:44.045Z,16.17
2023-04-29T00:30:15.730Z,14.40
2023-04-29T00:30:47.397Z,13.88
2023-04-29T00:31:19.062Z,15.65
2023-04-29T00:31:50.947Z,15.60
2023-04-29T00:32:23.046Z,15.85
2023-04-29T00:32:55.465Z,15.73
2023-04-29T00:33:27.265Z,12.82
2023-04-29T00:33:58.931Z,15.15
2023-04-29T00:34:30.657Z,12.77
2023-04-29T00:35:02.491Z,15.00
2023-04-29T00:35:34.754Z,14.68
2023-04-29T00:36:07.266Z,13.82
2023-04-29T00:36:38.948Z,15.45
2023-04-29T00:37:10.524Z,14.30
2023-04-29T00:37:42.357Z,12.68
2023-04-29T00:38:14.273Z,16.50
2023-04-29T00:38:45.994Z,16.10
2023-04-29T00:39:17.599Z,13.38
2023-04-29T00:39:49.623Z,13.25
2023-04-29T00:40:21.554Z,13.70
2023-04-29T00:40:53.462Z,14.05
2023-04-29T00:41:26.159Z,17.73
2023-04-29T00:41:57.992Z,12.20
2023-04-29T00:42:30.818Z,14.80
2023-04-29T00:43:02.473Z,13.65
2023-04-29T00:43:34.192Z,15.13
2023-04-29T00:44:05.838Z,13.07
2023-04-29T00:44:37.731Z,12.77
2023-04-29T00:45:11.593Z,14.73
2023-04-29T00:45:43.756Z,14.27
2023-04-29T00:46:16.059Z,14.82
2023-04-29T00:46:48.126Z,13.15
2023-04-29T00:47:19.818Z,13.90
2023-04-29T00:47:51.610Z,13.00
2023-04-29T00:48:23.249Z,16.25
2023-04-29T00:48:54.826Z,12.02
2023-04-29T00:49:27.906Z,14.27
2023-04-29T00:49:59.941Z,15.77
2023-04-29T00:50:31.626Z,18.48
2023-04-29T00:51:04.764Z,12.23
2023-04-29T00:51:37.353Z,12.77
2023-04-29T00:52:11.782Z,15.65
2023-04-29T00:52:43.463Z,15.98
2023-04-29T00:53:15.110Z,14.90
2023-04-29T00:53:49.209Z,12.77
2023-04-29T00:54:21.613Z,13.05
2023-04-29T00:54:53.254Z,15.48
2023-04-29T00:55:26.547Z,14.63
2023-04-29T00:55:58.248Z,15.40
2023-04-29T00:56:34.021Z,14.10
2023-04-29T00:57:06.412Z,15.48
2023-04-29T00:57:39.114Z,14.25
2023-04-29T00:58:11.950Z,13.02
2023-04-29T00:58:49.904Z,14.13
2023-04-29T00:59:22.749Z,15.20
2023-04-29T00:59:54.941Z,15.48
2023-04-29T01:00:27.137Z,15.38
2023-04-29T01:01:00.164Z,14.50
2023-04-29T01:01:32.598Z,17.50
2023-04-29T01:02:04.906Z,15.90
2023-04-29T01:02:37.061Z,17.88
2023-04-29T01:03:09.634Z,16.60
2023-04-29T01:03:42.076Z,13.90
2023-04-29T01:04:14.112Z,14.95
2023-04-29T01:04:46.063Z,15.77
2023-04-29T01:05:18.087Z,16.90
2023-04-29T01:06:01.839Z,16.17
2023-04-29T01:06:51.289Z,18.92
2023-04-29T01:07:45.798Z,18.00
2023-04-29T01:08:50.133Z,14.63
2023-04-29T01:09:39.181Z,16.45
2023-04-29T01:10:18.837Z,15.02
2023-04-29T01:11:08.566Z,13.60
2023-04-29T01:11:59.835Z,13.00
2023-04-29T01:12:54.880Z,16.98
2023-04-29T01:13:50.518Z,14.45
2023-04-29T01:14:24.252Z,15.57
2023-04-29T01:15:14.257Z,14.00
2023-04-29T01:16:08.358Z,15.45
2023-04-29T01:16:50.167Z,13.27
2023-04-29T01:17:27.134Z,13.77
2023-04-29T01:18:23.327Z,10.52
2023-04-29T01:18:58.283Z,15.18
2023-04-29T01:19:50.596Z,13.75
2023-04-29T01:20:24.525Z,16.08
2023-04-29T01:20:58.023Z,13.73
2023-04-29T01:21:32.081Z,12.23
2023-04-29T01:22:03.693Z,13.48
2023-04-29T01:22:35.472Z,12.50
2023-04-29T01:23:07.221Z,17.35
2023-04-29T01:23:38.964Z,14.88
2023-04-29T01:24:10.611Z,13.52
2023-04-29T01:24:42.250Z,16.45
2023-04-29T01:25:13.966Z,14.65
2023-04-29T01:25:46.233Z,14.90
2023-04-29T01:26:19.479Z,17.20
2023-04-29T01:27:03.100Z,15.55
2023-04-29T01:27:57.773Z,14.27
2023-04-29T01:28:40.912Z,16.17
2023-04-29T01:29:33.102Z,13.70
2023-04-29T01:30:34.567Z,15.30
2023-04-29T01:31:12.926Z,14.90
2023-04-29T01:31:55.563Z,14.75
2023-04-29T01:32:45.834Z,14.90
2023-04-29T01:33:33.098Z,15.68
2023-04-29T01:34:07.807Z,15.40
2023-04-29T01:34:44.775Z,12.55
2023-04-29T01:35:41.118Z,15.02
2023-04-29T01:36:17.211Z,12.00
2023-04-29T01:37:14.241Z,14.18
2023-04-29T01:38:18.905Z,14.02
2023-04-29T01:39:18.404Z,12.25
2023-04-29T01:40:16.802Z,14.68
2023-04-29T01:40:56.905Z,13.88
2023-04-29T01:41:39.300Z,16.02
2023-04-29T01:42:32.467Z,14.82
2023-04-29T01:43:08.330Z,14.65
2023-04-29T01:43:41.067Z,16.75
2023-04-29T01:44:18.726Z,17.15
2023-04-29T01:44:53.239Z,17.63
2023-04-29T01:45:26.484Z,17.25
2023-04-29T01:45:59.454Z,16.17
2023-04-29T01:46:31.782Z,18.45
2023-04-29T01:47:03.844Z,19.35
2023-04-29T01:47:37.406Z,16.17
2023-04-29T01:48:09.865Z,16.75
2023-04-29T01:48:41.874Z,18.80
2023-04-29T01:49:13.608Z,18.33
2023-04-29T01:49:46.884Z,21.38
2023-04-29T01:50:18.672Z,18.73
2023-04-29T01:50:50.304Z,16.98
2023-04-29T01:51:22.038Z,16.70
2023-04-29T01:51:53.698Z,18.23
2023-04-29T01:52:25.350Z,20.90
2023-04-29T01:52:56.952Z,17.73
2023-04-29T01:53:28.783Z,16.90
2023-04-29T01:54:00.369Z,16.85
2023-04-29T01:54:32.181Z,17.40
2023-04-29T01:55:04.584Z,18.40
2023-04-29T01:55:36.214Z,16.45
2023-04-29T01:56:08.290Z,22.02
2023-04-29T01:56:40.361Z,15.77
2023-04-29T01:57:12.051Z,19.27
2023-04-29T01:57:44.528Z,17.95
2023-04-29T01:58:16.168Z,20.27
2023-04-29T01:58:47.780Z,19.08
2023-04-29T01:59:20.034Z,19.83
2023-04-29T01:59:51.839Z,17.63
2023-04-29T02:00:23.759Z,20.08
2023-04-29T02:00:55.878Z,20.35
2023-04-29T02:01:27.639Z,16.65
2023-04-29T02:01:59.296Z,16.63
2023-04-29T02:02:31.181Z,16.30
2023-04-29T02:03:02.987Z,18.30
2023-04-29T02:03:35.188Z,16.15
2023-04-29T02:04:06.995Z,18.80
2023-04-29T02:04:38.701Z,16.42
2023-04-29T02:05:11.230Z,19.83
2023-04-29T02:05:43.268Z,18.05
2023-04-29T02:06:14.840Z,14.10
2023-04-29T02:06:46.638Z,16.27
2023-04-29T02:07:18.253Z,14.55
2023-04-29T02:07:49.843Z,15.50
2023-04-29T02:08:21.444Z,19.40
2023-04-29T02:08:53.065Z,12.73
2023-04-29T02:09:24.707Z,16.45
2023-04-29T02:09:56.317Z,14.57
2023-04-29T02:10:28.443Z,17.23
2023-04-29T02:11:00.552Z,16.67
2023-04-29T02:11:32.253Z,15.75
2023-04-29T02:12:04.776Z,14.57
2023-04-29T02:12:36.366Z,15.70
2023-04-29T02:13:08.195Z,14.20
2023-04-29T02:13:39.862Z,14.23
2023-04-29T02:14:12.696Z,16.20
2023-04-29T02:14:44.295Z,14.77
2023-04-29T02:15:16.121Z,14.43
2023-04-29T02:15:47.867Z,15.85
2023-04-29T02:16:19.625Z,12.82
2023-04-29T02:16:51.469Z,13.95
2023-04-29T02:17:23.072Z,19.08
2023-04-29T02:17:54.941Z,15.02
2023-04-29T02:18:26.572Z,14.80
2023-04-29T02:18:58.180Z,15.82
2023-04-29T02:19:29.826Z,13.48
2023-04-29T02:20:01.498Z,15.05
2023-04-29T02:20:33.128Z,16.23
2023-04-29T02:21:04.847Z,15.48
2023-04-29T02:21:36.430Z,18.00
2023-04-29T02:22:08.118Z,19.15
2023-04-29T02:22:39.946Z,19.05
2023-04-29T02:23:11.524Z,19.27
2023-04-29T02:23:43.197Z,19.92
2023-04-29T02:24:15.156Z,16.77
2023-04-29T02:24:47.773Z,20.13
2023-04-29T02:25:19.398Z,20.60
2023-04-29T02:25:51.029Z,18.73
2023-04-29T02:26:23.963Z,22.05
2023-04-29T02:26:56.139Z,20.73
2023-04-29T02:27:27.757Z,24.70
2023-04-29T02:27:59.398Z,18.95
2023-04-29T02:28:31.147Z,21.00
2023-04-29T02:29:03.770Z,18.10
2023-04-29T02:29:35.428Z,19.67
2023-04-29T02:30:07.647Z,20.00
2023-04-29T02:30:39.265Z,19.65
2023-04-29T02:31:10.885Z,21.50
2023-04-29T02:31:42.536Z,16.27
2023-04-29T02:32:16.031Z,17.00
2023-04-29T02:32:47.800Z,16.45
2023-04-29T02:33:19.635Z,16.17
2023-04-29T02:33:51.371Z,16.75
2023-04-29T02:34:24.236Z,17.15
2023-04-29T02:34:55.838Z,19.67
2023-04-29T02:35:27.504Z,22.73
2023-04-29T02:35:59.907Z,19.38
2023-04-29T02:36:31.769Z,17.15
2023-04-29T02:37:03.518Z,15.73
2023-04-29T02:37:35.345Z,17.10
2023-04-29T02:38:06.969Z,26.37
2023-04-29T02:38:38.538Z,18.58
2023-04-29T02:39:10.178Z,17.45
2023-04-29T02:39:41.975Z,20.08
2023-04-29T02:40:13.619Z,24.05
2023-04-29T02:40:46.002Z,22.23
2023-04-29T02:41:18.299Z,20.15
2023-04-29T02:41:49.992Z,19.95
2023-04-29T02:42:21.581Z,24.77
2023-04-29T02:42:53.232Z,21.08
2023-04-29T02:43:24.909Z,20.27
2023-04-29T02:43:56.481Z,20.95
2023-04-29T02:44:28.133Z,24.73
2023-04-29T02:44:59.767Z,26.23
2023-04-29T02:45:31.441Z,24.10
2023-04-29T02:46:03.273Z,23.48
2023-04-29T02:46:36.458Z,19.27
2023-04-29T02:47:08.098Z,21.73
2023-04-29T02:47:39.745Z,22.33
2023-04-29T02:48:11.564Z,20.70
2023-04-29T02:48:43.302Z,20.65
2023-04-29T02:49:15.042Z,21.25
2023-04-29T02:49:46.962Z,23.52
2023-04-29T02:50:18.571Z,20.33
2023-04-29T02:50:50.209Z,24.33
2023-04-29T02:51:22.526Z,25.48
2023-04-29T02:51:54.446Z,22.23
2023-04-29T02:52:26.103Z,27.00
2023-04-29T02:52:57.951Z,21.83
2023-04-29T02:53:29.561Z,23.55
2023-04-29T02:54:01.508Z,19.60
2023-04-29T02:54:33.099Z,24.05
2023-04-29T02:55:05.090Z,20.73
2023-04-29T02:55:36.701Z,23.55
2023-04-29T02:56:08.347Z,24.77
2023-04-29T02:56:40.028Z,21.35
2023-04-29T02:57:11.670Z,25.05
2023-04-29T02:57:43.317Z,21.95
2023-04-29T02:58:14.892Z,23.80
2023-04-29T02:58:46.602Z,23.33
2023-04-29T02:59:18.715Z,24.70
2023-04-29T02:59:50.527Z,23.13
2023-04-29T03:00:22.510Z,22.40
2023-04-29T03:00:54.168Z,23.63
2023-04-29T03:01:26.195Z,24.15
2023-04-29T03:01:58.195Z,27.02
2023-04-29T03:02:29.897Z,25.50
2023-04-29T03:03:02.022Z,22.80
2023-04-29T03:03:33.953Z,23.20
2023-04-29T03:04:06.821Z,21.15
2023-04-29T03:04:40.134Z,25.55
2023-04-29T03:05:12.033Z,21.90
2023-04-29T03:05:43.597Z,23.73
2023-04-29T03:06:16.138Z,24.77
2023-04-29T03:06:47.827Z,25.35
2023-04-29T03:07:19.432Z,23.75
2023-04-29T03:07:51.177Z,21.98
2023-04-29T03:08:22.724Z,25.60
2023-04-29T03:08:54.343Z,24.98
2023-04-29T03:09:26.012Z,23.40
2023-04-29T03:09:57.762Z,23.80
2023-04-29T03:10:29.346Z,22.55
2023-04-29T03:11:00.948Z,23.20
2023-04-29T03:11:33.166Z,25.65
2023-04-29T03:12:05.137Z,24.00
2023-04-29T03:12:37.094Z,22.35
2023-04-29T03:13:08.787Z,21.75
2023-04-29T03:13:40.369Z,19.35
2023-04-29T03:14:11.955Z,23.02
2023-04-29T03:14:43.599Z,24.45
2023-04-29T03:15:15.788Z,24.65
2023-04-29T03:15:47.336Z,24.05
2023-04-29T03:16:18.944Z,24.85
2023-04-29T03:16:50.612Z,22.85
2023-04-29T03:17:22.639Z,21.13
2023-04-29T03:17:54.374Z,25.98
2023-04-29T03:18:26.202Z,24.80
2023-04-29T03:18:58.329Z,25.88
2023-04-29T03:19:30.358Z,25.10
2023-04-29T03:20:02.112Z,22.17
2023-04-29T03:20:33.722Z,25.50
2023-04-29T03:21:05.498Z,24.02
2023-04-29T03:21:37.179Z,25.83
2023-04-29T03:22:11.642Z,24.38
2023-04-29T03:22:43.295Z,24.02
2023-04-29T03:23:14.860Z,24.50
2023-04-29T03:23:46.464Z,24.27
2023-04-29T03:24:18.167Z,26.60
2023-04-29T03:24:49.853Z,26.45
2023-04-29T03:25:21.582Z,25.17
2023-04-29T03:25:53.258Z,25.53
2023-04-29T03:26:25.447Z,22.55
2023-04-29T03:26:57.050Z,26.80
2023-04-29T03:27:29.085Z,26.13
2023-04-29T03:28:00.701Z,27.70
2023-04-29T03:28:32.318Z,24.02
2023-04-29T03:29:03.984Z,23.40
2023-04-29T03:29:35.800Z,25.98
2023-04-29T03:30:08.061Z,24.70
2023-04-29T03:30:39.647Z,23.67
2023-04-29T03:31:12.641Z,26.43
2023-04-29T03:31:45.139Z,22.75
2023-04-29T03:32:16.841Z,20.70
2023-04-29T03:32:48.657Z,23.75
2023-04-29T03:33:20.320Z,22.52
2023-04-29T03:33:53.554Z,20.90
2023-04-29T03:34:25.215Z,19.75
2023-04-29T03:34:57.784Z,23.77
2023-04-29T03:35:29.546Z,19.60
2023-04-29T03:36:01.660Z,23.08
2023-04-29T03:36:33.254Z,23.48
2023-04-29T03:37:04.877Z,18.67
2023-04-29T03:37:36.594Z,19.42
2023-04-29T03:38:08.389Z,16.55
2023-04-29T03:38:39.976Z,18.20
2023-04-29T03:39:12.675Z,18.73
2023-04-29T03:39:44.476Z,19.17
2023-04-29T03:40:16.298Z,17.80
2023-04-29T03:40:48.257Z,18.85
2023-04-29T03:41:19.966Z,16.67
2023-04-29T03:41:51.762Z,13.93
2023-04-29T03:42:23.345Z,16.15
2023-04-29T03:42:54.992Z,16.33
2023-04-29T03:43:26.841Z,19.17
2023-04-29T03:44:01.501Z,17.50
2023-04-29T03:44:33.150Z,16.17
2023-04-29T03:45:05.349Z,14.00
2023-04-29T03:45:37.548Z,13.20
2023-04-29T03:46:09.216Z,15.30
2023-04-29T03:46:40.908Z,12.82
2023-04-29T03:47:13.938Z,14.50
2023-04-29T03:47:45.703Z,15.38
2023-04-29T03:48:17.659Z,13.77
2023-04-29T03:48:49.326Z,15.23
2023-04-29T03:49:20.963Z,11.38
2023-04-29T03:49:52.789Z,15.48
2023-04-29T03:50:24.695Z,11.48
2023-04-29T03:50:56.423Z,12.25
2023-04-29T03:51:28.226Z,11.20
2023-04-29T03:52:00.065Z,12.90
2023-04-29T03:52:31.844Z,11.68
2023-04-29T03:53:03.514Z,15.60
2023-04-29T03:53:36.897Z,14.30
2023-04-29T03:54:09.991Z,14.10
2023-04-29T03:54:42.100Z,12.27
2023-04-29T03:55:13.764Z,14.27
2023-04-29T03:55:45.628Z,15.15
2023-04-29T03:56:17.595Z,12.70
2023-04-29T03:56:49.200Z,11.68
2023-04-29T03:57:20.939Z,13.80
2023-04-29T03:57:52.510Z,10.70
2023-04-29T03:58:24.142Z,11.73
2023-04-29T03:58:55.858Z,12.02
2023-04-29T03:59:27.458Z,13.50
2023-04-29T03:59:59.030Z,12.15
2023-04-29T04:00:31.605Z,11.85
2023-04-29T04:01:03.227Z,12.85
2023-04-29T04:01:34.973Z,12.20
2023-04-29T04:02:06.925Z,12.38
2023-04-29T04:02:38.751Z,11.35
2023-04-29T04:03:10.903Z,12.27
2023-04-29T04:03:43.520Z,11.45
2023-04-29T04:04:15.789Z,12.05
2023-04-29T04:04:47.842Z,11.68
2023-04-29T04:05:21.138Z,12.55
2023-04-29T04:05:52.819Z,11.68
2023-04-29T04:06:24.448Z,11.80
2023-04-29T04:06:56.133Z,13.05
2023-04-29T04:07:27.763Z,9.88
2023-04-29T04:08:00.804Z,10.77
2023-04-29T04:08:32.436Z,9.47
2023-04-29T04:09:04.027Z,14.32
2023-04-29T04:09:35.780Z,11.70
2023-04-29T04:10:07.689Z,9.73
2023-04-29T04:10:39.300Z,10.73
2023-04-29T04:11:11.148Z,10.75
2023-04-29T04:11:42.793Z,9.57
2023-04-29T04:12:14.459Z,9.25
2023-04-29T04:12:47.437Z,9.85
2023-04-29T04:13:19.031Z,12.32
2023-04-29T04:13:50.757Z,10.67
2023-04-29T04:14:22.329Z,10.43
2023-04-29T04:14:55.486Z,9.30
2023-04-29T04:15:27.048Z,10.18
2023-04-29T04:15:59.011Z,13.38
2023-04-29T04:16:30.716Z,10.45
2023-04-29T04:17:02.376Z,9.40
2023-04-29T04:17:34.133Z,9.32
2023-04-29T04:18:06.211Z,11.88
2023-04-29T04:18:38.942Z,11.95
2023-04-29T04:19:10.580Z,10.45
2023-04-29T04:19:42.189Z,9.23
2023-04-29T04:20:14.105Z,11.20
2023-04-29T04:20:45.906Z,9.82
2023-04-29T04:21:17.540Z,11.27
2023-04-29T04:21:49.200Z,9.30
2023-04-29T04:22:21.116Z,9.77
2023-04-29T04:22:54.838Z,9.45
2023-04-29T04:23:26.640Z,11.27
2023-04-29T04:23:58.500Z,9.20
2023-04-29T04:24:30.294Z,10.63
2023-04-29T04:25:01.906Z,9.80
2023-04-29T04:25:33.561Z,9.93
2023-04-29T04:26:05.177Z,9.90
2023-04-29T04:26:36.807Z,11.82
2023-04-29T04:27:08.405Z,10.65
2023-04-29T04:27:40.033Z,9.95
2023-04-29T04:28:11.739Z,11.38
2023-04-29T04:28:43.312Z,9.75
2023-04-29T04:29:14.970Z,10.02
2023-04-29T04:29:46.692Z,8.60
2023-04-29T04:30:18.346Z,9.40
2023-04-29T04:30:50.050Z,10.25
2023-04-29T04:31:21.665Z,10.32
2023-04-29T04:31:53.381Z,11.05
2023-04-29T04:32:25.112Z,10.77
2023-04-29T04:32:56.799Z,12.45
2023-04-29T04:33:28.648Z,9.18
2023-04-29T04:34:00.327Z,9.68
2023-04-29T04:34:32.540Z,10.10
2023-04-29T04:35:04.390Z,10.83
2023-04-29T04:35:36.022Z,10.40
2023-04-29T04:36:08.083Z,10.13
2023-04-29T04:36:39.756Z,11.00
2023-04-29T04:37:12.226Z,9.85
2023-04-29T04:37:43.822Z,8.90
2023-04-29T04:38:15.475Z,11.82
2023-04-29T04:38:47.108Z,8.43
2023-04-29T04:39:19.062Z,11.30
2023-04-29T04:39:50.930Z,9.50
2023-04-29T04:40:22.973Z,9.20
2023-04-29T04:40:54.629Z,8.25
2023-04-29T04:41:26.459Z,9.80
2023-04-29T04:41:58.235Z,10.90
2023-04-29T04:42:29.853Z,10.73
2023-04-29T04:43:01.598Z,7.82
2023-04-29T04:43:33.154Z,10.48
2023-04-29T04:44:04.923Z,9.15
2023-04-29T04:44:37.726Z,9.20
2023-04-29T04:45:11.411Z,11.93
2023-04-29T04:45:43.268Z,8.90
2023-04-29T04:46:17.190Z,9.93
2023-04-29T04:46:48.995Z,9.52
2023-04-29T04:47:20.621Z,9.98
2023-04-29T04:47:52.324Z,8.98
2023-04-29T04:48:23.998Z,10.10
2023-04-29T04:48:55.612Z,10.13
2023-04-29T04:49:27.556Z,10.73
2023-04-29T04:49:59.125Z,10.80
2023-04-29T04:50:30.967Z,11.85
2023-04-29T04:51:10.599Z,9.43
2023-04-29T04:51:45.393Z,10.23
2023-04-29T04:52:19.726Z,9.43
2023-04-29T04:52:51.279Z,9.20
2023-04-29T04:53:23.058Z,8.68
2023-04-29T04:53:54.842Z,9.63
2023-04-29T04:54:26.465Z,11.45
2023-04-29T04:54:58.089Z,9.18
2023-04-29T04:55:29.705Z,9.57
2023-04-29T04:56:04.940Z,11.73
2023-04-29T04:56:37.903Z,9.57
2023-04-29T04:57:09.971Z,8.95
2023-04-29T04:57:41.827Z,11.18
2023-04-29T04:58:13.383Z,10.93
2023-04-29T04:58:44.990Z,10.93
2023-04-29T04:59:16.611Z,9.45
2023-04-29T04:59:48.435Z,8.93
2023-04-29T05:00:20.247Z,10.80
2023-04-29T05:00:52.692Z,10.23
2023-04-29T05:01:24.333Z,10.45
2023-04-29T05:01:55.960Z,9.87
2023-04-29T05:02:27.815Z,9.40
2023-04-29T05:02:59.792Z,10.23
2023-04-29T05:03:31.565Z,10.32
2023-04-29T05:04:03.520Z,10.38
2023-04-29T05:04:35.549Z,12.07
2023-04-29T05:05:07.675Z,10.98
2023-04-29T05:05:39.377Z,10.57
2023-04-29T05:06:11.091Z,10.43
2023-04-29T05:06:42.695Z,10.77
2023-04-29T05:07:14.465Z,10.25
2023-04-29T05:07:46.079Z,11.70
2023-04-29T05:08:17.682Z,10.73
2023-04-29T05:08:49.303Z,13.38
2023-04-29T05:09:20.939Z,15.32
2023-04-29T05:09:52.748Z,10.45
2023-04-29T05:10:26.971Z,12.40
2023-04-29T05:10:58.653Z,11.82
2023-04-29T05:11:30.351Z,9.82
2023-04-29T05:12:02.028Z,10.35
2023-04-29T05:12:35.356Z,11.03
2023-04-29T05:13:06.951Z,14.30
2023-04-29T05:13:38.527Z,10.65
2023-04-29T05:14:10.264Z,9.35
2023-04-29T05:14:41.852Z,10.60
2023-04-29T05:15:15.172Z,10.30
2023-04-29T05:15:46.918Z,11.90
2023-04-29T05:16:18.740Z,11.13
2023-04-29T05:16:51.709Z,10.43
2023-04-29T05:17:23.772Z,10.82
2023-04-29T05:17:55.562Z,12.02
2023-04-29T05:18:27.235Z,11.00
2023-04-29T05:18:58.894Z,10.85
2023-04-29T05:19:30.741Z,9.68
2023-04-29T05:20:02.926Z,10.68
2023-04-29T05:20:34.575Z,11.27
2023-04-29T05:21:06.287Z,12.55
2023-04-29T05:21:38.185Z,11.43
2023-04-29T05:22:09.876Z,12.80
2023-04-29T05:22:41.584Z,10.68
2023-04-29T05:23:13.211Z,9.60
2023-04-29T05:23:44.777Z,14.38
2023-04-29T05:24:16.431Z,12.02
2023-04-29T05:24:51.901Z,11.02
2023-04-29T05:25:23.538Z,12.98
2023-04-29T05:25:55.558Z,10.98
2023-04-29T05:26:27.469Z,12.57
2023-04-29T05:26:59.157Z,10.38
2023-04-29T05:27:30.891Z,10.73
2023-04-29T05:28:03.468Z,11.18
2023-04-29T05:28:35.403Z,9.90
2023-04-29T05:29:07.086Z,10.88
2023-04-29T05:29:38.722Z,11.45
2023-04-29T05:30:10.790Z,10.23
2023-04-29T05:30:42.788Z,12.10
2023-04-29T05:31:14.517Z,10.15
2023-04-29T05:31:46.188Z,10.05
2023-04-29T05:32:17.915Z,9.98
2023-04-29T05:32:49.567Z,10.95
2023-04-29T05:33:21.221Z,13.07
2023-04-29T05:33:52.959Z,11.03
2023-04-29T05:34:24.658Z,11.52
2023-04-29T05:34:56.843Z,9.63
2023-04-29T05:35:28.531Z,11.27
2023-04-29T05:36:00.200Z,11.32
2023-04-29T05:36:32.000Z,10.25
2023-04-29T05:37:03.634Z,10.65
2023-04-29T05:37:35.254Z,11.43
2023-04-29T05:38:07.067Z,13.93
2023-04-29T05:38:39.029Z,9.63
2023-04-29T05:39:10.722Z,9.02
2023-04-29T05:39:42.290Z,10.50
2023-04-29T05:40:13.883Z,11.30
2023-04-29T05:40:45.883Z,10.77
2023-04-29T05:41:17.579Z,11.45
2023-04-29T05:41:49.187Z,10.70
2023-04-29T05:42:20.764Z,11.52
2023-04-29T05:42:52.511Z,11.73
2023-04-29T05:43:24.983Z,11.93
2023-04-29T05:43:56.567Z,10.52
2023-04-29T05:44:28.174Z,13.03
2023-04-29T05:44:59.902Z,11.57
2023-04-29T05:45:31.550Z,11.43
2023-04-29T05:46:04.390Z,11.90
2023-04-29T05:46:36.290Z,11.10
2023-04-29T05:47:07.912Z,10.30
2023-04-29T05:47:39.511Z,10.93
2023-04-29T05:48:11.401Z,10.77
2023-04-29T05:48:43.240Z,11.40
2023-04-29T05:49:16.113Z,10.02
2023-04-29T05:49:48.318Z,9.93
2023-04-29T05:50:19.899Z,10.18
2023-04-29T05:50:52.121Z,9.07
2023-04-29T05:51:23.703Z,11.93
2023-04-29T05:51:55.300Z,10.45
2023-04-29T05:52:26.856Z,10.60
2023-04-29T05:52:58.472Z,10.50
2023-04-29T05:53:30.222Z,11.57
2023-04-29T05:54:01.852Z,12.73
2023-04-29T05:54:34.451Z,12.88
2023-04-29T05:55:06.294Z,11.37
2023-04-29T05:55:38.091Z,10.43
2023-04-29T05:56:09.835Z,11.48
2023-04-29T05:56:41.763Z,12.15
2023-04-29T05:57:13.355Z,10.85
2023-04-29T05:57:44.920Z,12.32
2023-04-29T05:58:17.038Z,12.30
2023-04-29T05:58:48.636Z,11.52
2023-04-29T05:59:20.196Z,11.85
2023-04-29T05:59:52.114Z,11.93
2023-04-29T06:00:23.970Z,11.70
2023-04-29T06:00:56.212Z,12.15
2023-04-29T06:01:28.402Z,9.65
2023-04-29T06:02:00.642Z,12.73
2023-04-29T06:02:32.409Z,11.18
2023-04-29T06:03:04.929Z,10.57
2023-04-29T06:03:37.506Z,10.93
2023-04-29T06:04:09.406Z,11.93
2023-04-29T06:04:41.955Z,11.85
2023-04-29T06:05:15.491Z,13.80
2023-04-29T06:05:47.752Z,12.83
2023-04-29T06:06:19.760Z,10.63
2023-04-29T06:06:52.447Z,12.60
2023-04-29T06:07:24.391Z,12.40
2023-04-29T06:07:56.299Z,11.15
2023-04-29T06:08:28.117Z,10.77
2023-04-29T06:09:00.744Z,9.35
2023-04-29T06:09:33.465Z,9.48
2023-04-29T06:10:05.839Z,12.45
2023-04-29T06:10:38.055Z,10.45
2023-04-29T06:11:09.667Z,10.13
2023-04-29T06:11:41.679Z,11.30
2023-04-29T06:12:13.481Z,10.32
2023-04-29T06:12:45.087Z,10.20
2023-04-29T06:13:16.661Z,11.68
2023-04-29T06:13:48.298Z,11.20
2023-04-29T06:14:19.923Z,10.05
2023-04-29T06:14:51.596Z,10.32
2023-04-29T06:15:23.273Z,10.40
2023-04-29T06:15:54.894Z,12.70
2023-04-29T06:16:26.597Z,12.93
2023-04-29T06:16:58.247Z,13.30
2023-04-29T06:17:29.881Z,11.70
2023-04-29T06:18:01.611Z,11.38
2023-04-29T06:18:33.423Z,12.90
2023-04-29T06:19:05.052Z,16.45
2023-04-29T06:19:36.731Z,12.15
2023-04-29T06:20:09.424Z,11.90
2023-04-29T06:20:41.129Z,12.32
2023-04-29T06:21:12.738Z,11.00
2023-04-29T06:21:44.383Z,9.60
2023-04-29T06:22:15.987Z,13.48
2023-04-29T06:22:47.635Z,12.60
2023-04-29T06:23:19.233Z,13.20
2023-04-29T06:23:50.856Z,12.85
2023-04-29T06:24:22.997Z,11.38
2023-04-29T06:24:54.651Z,13.95
2023-04-29T06:25:26.250Z,11.95
2023-04-29T06:25:57.908Z,12.25
2023-04-29T06:26:29.611Z,12.18
2023-04-29T06:27:01.410Z,11.47
2023-04-29T06:27:33.088Z,11.63
2023-04-29T06:28:05.059Z,10.13
2023-04-29T06:28:37.093Z,10.25
2023-04-29T06:29:08.838Z,13.13
2023-04-29T06:29:40.455Z,9.60
2023-04-29T06:30:12.305Z,10.50
2023-04-29T06:30:44.030Z,10.32
2023-04-29T06:31:16.354Z,11.60
2023-04-29T06:31:48.084Z,12.05
2023-04-29T06:32:19.703Z,10.60
2023-04-29T06:32:51.960Z,21.25
2023-04-29T06:33:23.756Z,11.35
2023-04-29T06:33:55.504Z,11.50
2023-04-29T06:34:27.177Z,12.65
2023-04-29T06:34:58.850Z,11.25
2023-04-29T06:35:30.453Z,11.82
2023-04-29T06:36:02.069Z,11.80
2023-04-29T06:36:33.706Z,10.48
2023-04-29T06:37:05.871Z,10.25
2023-04-29T06:37:38.236Z,11.27
2023-04-29T06:38:10.018Z,13.40
2023-04-29T06:38:41.725Z,10.38
2023-04-29T06:39:13.332Z,11.38
2023-04-29T06:39:44.949Z,12.95
2023-04-29T06:40:16.944Z,10.52
2023-04-29T06:40:49.038Z,9.45
2023-04-29T06:41:20.706Z,11.15
2023-04-29T06:41:52.616Z,11.35
2023-04-29T06:42:24.493Z,11.52
2023-04-29T06:42:56.508Z,10.27
2023-04-29T06:43:28.333Z,12.85
2023-04-29T06:43:59.992Z,11.73
2023-04-29T06:44:31.672Z,10.02
2023-04-29T06:45:03.479Z,12.23
2023-04-29T06:45:35.221Z,11.40
2023-04-29T06:46:07.282Z,10.30
2023-04-29T06:46:39.503Z,11.32
2023-04-29T06:47:11.269Z,13.23
2023-04-29T06:47:44.049Z,13.18
2023-04-29T06:48:15.796Z,9.63
2023-04-29T06:48:47.681Z,9.43
2023-04-29T06:49:19.316Z,12.25
2023-04-29T06:49:51.471Z,14.88
2023-04-29T06:50:23.198Z,11.35
2023-04-29T06:50:56.769Z,9.70
2023-04-29T06:51:29.113Z,12.90
2023-04-29T06:52:02.322Z,11.65
2023-04-29T06:52:34.584Z,10.13
2023-04-29T06:53:06.339Z,11.88
2023-04-29T06:53:38.027Z,11.77
2023-04-29T06:54:09.697Z,12.63
2023-04-29T06:54:41.338Z,11.95
2023-04-29T06:55:12.997Z,13.57
2023-04-29T06:55:46.414Z,11.43
2023-04-29T06:56:18.226Z,11.52
2023-04-29T06:56:49.829Z,9.98
2023-04-29T06:57:21.870Z,12.32
2023-04-29T06:57:54.080Z,10.65
2023-04-29T06:58:25.725Z,11.57
2023-04-29T06:58:57.447Z,12.77
2023-04-29T06:59:29.014Z,10.45
2023-04-29T07:00:00.981Z,11.23
2023-04-29T07:00:32.752Z,13.43
2023-04-29T07:01:04.891Z,10.25
2023-04-29T07:01:36.610Z,11.00
2023-04-29T07:02:08.317Z,13.57
2023-04-29T07:02:40.331Z,13.65
2023-04-29T07:03:12.911Z,10.25
2023-04-29T07:03:44.725Z,11.85
2023-04-29T07:04:16.524Z,11.23